Time;durP1;ratioP1;P1;durP2;ratioP2;P2;SDS_P1;SDS_P2;PMS_P1;PMS_P2;Temp;Humidity;BMP_temperature;BMP_pressure;BME280_temperature;BME280_humidity;BME280_pressure;Samples;Min_cycle;Max_cycle;Signal;HPM_P1;HPM_P2
2022/09/18 00:01:35;;;;;;;6.03;2.30;;;;;;;19.11;47.52;92767.03;5034445;28;20055;-87
2022/09/18 00:04:02;;;;;;;6.95;2.38;;;;;;;19.10;47.74;92773.78;5061156;28;20033;-86
2022/09/18 00:06:29;;;;;;;6.32;2.53;;;;;;;19.09;47.92;92766.09;5069040;28;20041;-86
2022/09/18 00:08:56;;;;;;;4.68;2.22;;;;;;;19.10;47.61;92773.03;5051215;28;20037;-86
2022/09/18 00:11:23;;;;;;;8.32;2.20;;;;;;;19.11;47.97;92766.28;5033355;28;20160;-86
2022/09/18 00:13:48;;;;;;;3.67;2.17;;;;;;;19.10;47.66;92779.25;5031106;28;20163;-86
2022/09/18 00:16:14;;;;;;;6.53;2.10;;;;;;;19.11;47.82;92777.25;5072684;28;20575;-88
2022/09/18 00:18:40;;;;;;;5.63;2.05;;;;;;;19.11;47.85;92786.19;5060743;28;20055;-86
2022/09/18 00:21:08;;;;;;;4.68;1.80;;;;;;;19.11;47.99;92782.72;5034263;28;20043;-87
2022/09/18 00:23:34;;;;;;;6.25;1.90;;;;;;;19.10;47.80;92792.94;5059607;28;20033;-87
2022/09/18 00:25:59;;;;;;;5.57;2.13;;;;;;;19.10;47.59;92789.47;5067572;28;20150;-87
2022/09/18 00:28:25;;;;;;;4.78;1.90;;;;;;;19.08;47.75;92784.53;5066194;28;20033;-86
2022/09/18 00:30:50;;;;;;;3.60;2.08;;;;;;;19.09;47.85;92798.97;5067350;28;20040;-86
2022/09/18 00:33:16;;;;;;;4.53;2.08;;;;;;;19.08;47.93;92806.44;5066935;28;20033;-88
2022/09/18 00:35:42;;;;;;;5.35;1.95;;;;;;;19.11;47.58;92804.66;5020956;28;20029;-86
2022/09/18 00:38:08;;;;;;;3.92;1.67;;;;;;;19.09;47.66;92788.72;5058520;28;20025;-86
2022/09/18 00:40:33;;;;;;;6.07;1.88;;;;;;;19.12;47.72;92798.63;5050067;28;20123;-87
2022/09/18 00:43:21;;;;;;;2.97;1.65;;;;;;;19.12;47.88;92795.16;5050442;28;20049;-86
2022/09/18 00:45:51;;;;;;;3.58;1.88;;;;;;;19.09;47.51;92799.69;5046731;28;20575;-87
2022/09/18 00:48:17;;;;;;;4.20;1.58;;;;;;;19.10;48.12;92800.44;5068464;28;20040;-86
2022/09/18 00:50:42;;;;;;;4.53;1.83;;;;;;;19.10;47.60;92805.91;5042129;28;20041;-86
2022/09/18 00:53:08;;;;;;;4.43;1.88;;;;;;;19.09;47.49;92801.69;5048788;28;20102;-87
2022/09/18 00:55:36;;;;;;;6.55;1.63;;;;;;;19.10;47.92;92808.66;5034103;28;20039;-87
2022/09/18 00:58:02;;;;;;;2.63;1.40;;;;;;;19.11;47.80;92805.38;5054684;28;20517;-86
2022/09/18 01:00:28;;;;;;;5.68;1.80;;;;;;;19.08;48.11;92809.19;5086819;28;20063;-86
2022/09/18 01:02:54;;;;;;;4.90;1.90;;;;;;;19.12;47.90;92808.84;5069927;28;20568;-86
2022/09/18 01:05:56;;;;;;;3.55;1.77;;;;;;;19.11;47.78;92818.34;5049207;28;20066;-87
2022/09/18 01:08:36;;;;;;;4.60;1.88;;;;;;;19.08;47.89;92816.66;5078266;28;20032;-86
2022/09/18 01:11:20;;;;;;;5.78;2.13;;;;;;;19.07;47.93;92820.66;5050059;28;20028;-87
2022/09/18 01:14:04;;;;;;;5.40;1.73;;;;;;;19.06;47.80;92833.63;5066375;28;20055;-87
2022/09/18 01:16:47;;;;;;;5.10;1.83;;;;;;;19.06;47.70;92830.88;5066888;28;20032;-87
2022/09/18 01:19:39;;;;;;;3.78;1.38;;;;;;;19.09;47.96;92846.25;5057640;28;20212;-86
2022/09/18 01:22:22;;;;;;;3.95;1.60;;;;;;;19.08;47.98;92850.28;5048924;28;20041;-86
2022/09/18 01:25:01;;;;;;;4.40;1.70;;;;;;;19.09;47.94;92840.03;5068134;28;20127;-87
2022/09/18 01:27:50;;;;;;;3.42;1.35;;;;;;;19.08;47.54;92850.28;5083182;28;20028;-86
2022/09/18 01:30:16;;;;;;;2.40;1.35;;;;;;;19.08;47.76;92846.78;5071756;28;20040;-86
2022/09/18 01:32:58;;;;;;;4.75;1.60;;;;;;;19.07;48.09;92839.84;5049620;28;20325;-86
2022/09/18 01:35:25;;;;;;;3.47;1.50;;;;;;;19.08;47.97;92861.22;5049151;28;20033;-87
2022/09/18 01:38:02;;;;;;;2.95;1.00;;;;;;;19.07;48.15;92842.56;5049541;28;20489;-86
2022/09/18 01:40:38;;;;;;;3.55;1.55;;;;;;;19.06;48.13;92854.81;5059989;28;20043;-86
2022/09/18 01:43:05;;;;;;;3.42;1.63;;;;;;;19.07;48.07;92848.06;5053349;28;20029;-86
2022/09/18 01:45:32;;;;;;;2.90;1.50;;;;;;;19.08;48.05;92852.28;5049826;28;20063;-86
2022/09/18 01:47:59;;;;;;;2.50;1.13;;;;;;;19.08;48.10;92853.00;5050165;28;20240;-88
2022/09/18 01:50:26;;;;;;;3.42;1.50;;;;;;;19.07;47.70;92845.31;5045176;27;20362;-86
2022/09/18 01:53:02;;;;;;;2.58;1.15;;;;;;;19.05;48.21;92854.06;5075652;28;20410;-87
2022/09/18 01:55:28;;;;;;;4.07;1.42;;;;;;;19.07;47.93;92859.75;5089059;28;20477;-86
2022/09/18 01:57:59;;;;;;;2.20;1.23;;;;;;;19.05;47.71;92845.13;5079291;28;20044;-87
2022/09/18 02:00:26;;;;;;;3.30;1.70;;;;;;;19.06;47.91;92847.31;5034829;28;20076;-86
2022/09/18 02:02:57;;;;;;;3.88;1.15;;;;;;;19.07;48.02;92851.53;5048443;28;20506;-86
2022/09/18 02:05:32;;;;;;;2.78;1.40;;;;;;;19.09;47.73;92848.28;5044984;27;20055;-87
2022/09/18 02:08:10;;;;;;;3.53;1.42;;;;;;;19.08;47.95;92855.00;5086198;28;20028;-87
2022/09/18 02:10:39;;;;;;;3.50;1.50;;;;;;;19.05;48.17;92856.09;5084981;28;20044;-86
2022/09/18 02:13:04;;;;;;;4.80;1.80;;;;;;;19.06;47.95;92857.53;5068751;28;20130;-86
2022/09/18 02:15:31;;;;;;;4.47;1.40;;;;;;;19.04;48.00;92838.91;5086095;28;20036;-86
2022/09/18 02:17:58;;;;;;;3.90;1.70;;;;;;;19.05;47.87;92843.09;5043831;28;20044;-86
2022/09/18 02:20:30;;;;;;;2.88;1.30;;;;;;;19.05;48.04;92840.38;5048273;28;20029;-87
2022/09/18 02:22:58;;;;;;;2.50;1.23;;;;;;;19.03;48.03;92850.41;5048701;28;20033;-86
2022/09/18 02:25:29;;;;;;;3.80;1.80;;;;;;;19.05;48.25;92850.63;5065065;28;20094;-87
2022/09/18 02:27:55;;;;;;;3.90;1.48;;;;;;;19.03;47.67;92845.66;5063486;28;20940;-86
2022/09/18 02:30:20;;;;;;;2.90;1.40;;;;;;;19.08;47.87;92846.78;5063604;28;20052;-86
2022/09/18 02:32:46;;;;;;;3.83;1.23;;;;;;;19.02;47.94;92846.91;5049255;28;20031;-87
2022/09/18 02:35:11;;;;;;;3.38;1.10;;;;;;;19.06;47.61;92844.59;5047699;28;20327;-86
2022/09/18 02:37:53;;;;;;;5.00;1.98;;;;;;;19.03;47.81;92844.91;5065489;28;20035;-87
2022/09/18 02:40:27;;;;;;;3.80;1.60;;;;;;;19.06;48.04;92839.09;5065105;28;20076;-87
2022/09/18 02:42:58;;;;;;;3.58;1.45;;;;;;;19.04;48.09;92832.69;5064804;28;20384;-86
2022/09/18 02:45:26;;;;;;;2.33;1.15;;;;;;;19.04;47.88;92836.19;5047738;28;20047;-87
2022/09/18 02:48:08;;;;;;;2.70;1.30;;;;;;;19.05;48.09;92843.09;5066458;28;20372;-87
2022/09/18 02:50:53;;;;;;;2.42;1.23;;;;;;;19.06;47.99;92835.63;5068072;28;20104;-86
2022/09/18 02:53:26;;;;;;;3.10;1.33;;;;;;;19.04;48.17;92836.19;5084302;28;20036;-86
2022/09/18 02:56:01;;;;;;;1.95;1.42;;;;;;;19.04;48.33;92832.69;5068503;28;20048;-88
2022/09/18 02:58:31;;;;;;;1.67;1.13;;;;;;;19.06;48.17;92819.94;5056725;28;20071;-88
2022/09/18 03:01:00;;;;;;;2.87;1.40;;;;;;;19.05;48.17;92815.00;5044412;28;20040;-86
2022/09/18 03:03:27;;;;;;;1.85;1.00;;;;;;;19.01;48.12;92826.28;5064463;28;20040;-86
2022/09/18 03:05:52;;;;;;;1.95;1.08;;;;;;;19.04;48.79;92824.47;5054972;28;20036;-87
2022/09/18 03:08:18;;;;;;;3.72;1.20;;;;;;;19.05;48.48;92840.38;5075786;28;20039;-86
2022/09/18 03:10:43;;;;;;;2.33;1.10;;;;;;;19.04;48.20;92838.91;5048202;28;20045;-86
2022/09/18 03:13:09;;;;;;;3.38;1.08;;;;;;;19.04;48.41;92843.66;5064687;28;20124;-86
2022/09/18 03:15:34;;;;;;;3.33;1.13;;;;;;;19.04;47.94;92849.13;5048093;28;20029;-86
2022/09/18 03:17:59;;;;;;;2.30;0.90;;;;;;;19.04;47.93;92849.13;5041936;28;20402;-86
2022/09/18 03:20:25;;;;;;;2.25;1.17;;;;;;;19.03;48.16;92855.88;5068090;28;20035;-86
2022/09/18 03:22:50;;;;;;;2.20;1.00;;;;;;;19.02;48.41;92866.09;5068101;28;20037;-86
2022/09/18 03:25:16;;;;;;;1.77;1.00;;;;;;;19.03;48.03;92847.66;5051703;28;20028;-87
2022/09/18 03:27:41;;;;;;;2.80;0.93;;;;;;;19.03;48.03;92864.09;5074050;28;20040;-86
2022/09/18 03:30:08;;;;;;;2.45;1.13;;;;;;;19.00;48.04;92859.66;5069891;28;20037;-87
2022/09/18 03:32:34;;;;;;;1.80;0.80;;;;;;;19.02;48.04;92846.19;5066415;28;20373;-87
2022/09/18 03:34:59;;;;;;;2.33;1.33;;;;;;;19.03;48.26;92848.41;5051692;28;20453;-86
2022/09/18 03:37:25;;;;;;;5.55;1.13;;;;;;;19.01;48.09;92850.19;5068120;28;20032;-86
2022/09/18 03:39:51;;;;;;;2.65;1.23;;;;;;;19.00;48.31;92854.19;5085446;28;20060;-86
2022/09/18 03:42:16;;;;;;;2.60;1.13;;;;;;;19.00;47.99;92860.41;5083412;28;20032;-87
2022/09/18 03:44:42;;;;;;;3.40;1.00;;;;;;;19.02;48.01;92863.34;5068129;28;20514;-86
2022/09/18 03:47:08;;;;;;;3.10;1.38;;;;;;;19.01;48.38;92861.88;5067916;28;20040;-86
2022/09/18 03:49:34;;;;;;;2.00;0.98;;;;;;;19.01;47.92;92853.66;5068928;28;20047;-86
2022/09/18 03:51:59;;;;;;;3.33;1.38;;;;;;;19.03;48.04;92864.09;5050931;28;20044;-89
2022/09/18 03:54:25;;;;;;;1.67;0.85;;;;;;;19.01;48.06;92856.41;5072277;28;20106;-86
2022/09/18 03:56:50;;;;;;;2.10;1.20;;;;;;;19.03;48.08;92850.41;5019963;28;20438;-87
2022/09/18 03:59:16;;;;;;;3.08;1.15;;;;;;;19.01;48.18;92861.16;5004762;28;20040;-86
2022/09/18 04:01:41;;;;;;;2.53;1.10;;;;;;;19.03;47.97;92851.13;5010336;28;20032;-86
2022/09/18 04:04:07;;;;;;;2.13;1.00;;;;;;;19.01;48.29;92864.63;4999055;28;20052;-86
2022/09/18 04:06:32;;;;;;;2.47;1.10;;;;;;;19.00;47.89;92857.66;5036984;28;20032;-86
2022/09/18 04:08:58;;;;;;;2.33;1.00;;;;;;;19.00;48.13;92856.94;5029903;28;20569;-86
2022/09/18 04:11:23;;;;;;;1.65;1.10;;;;;;;19.02;48.31;92866.09;5015550;28;20040;-86
2022/09/18 04:13:49;;;;;;;1.67;0.82;;;;;;;19.00;48.22;92865.16;5025450;28;20040;-86
2022/09/18 04:16:14;;;;;;;1.63;0.80;;;;;;;18.99;48.32;92869.88;5032274;28;20037;-87
2022/09/18 04:18:39;;;;;;;1.80;0.95;;;;;;;19.00;48.22;92871.38;5051946;28;20036;-86
2022/09/18 04:21:05;;;;;;;2.03;1.27;;;;;;;19.00;47.83;92871.38;5052614;28;20465;-86
2022/09/18 04:23:30;;;;;;;2.33;1.20;;;;;;;19.02;48.15;92870.84;5053976;28;20033;-87
2022/09/18 04:25:56;;;;;;;2.67;0.90;;;;;;;19.01;48.18;92878.31;5012668;28;20105;-86
2022/09/18 04:28:24;;;;;;;2.20;1.13;;;;;;;19.00;47.89;92881.59;5026944;28;20534;-86
2022/09/18 04:30:49;;;;;;;1.85;1.05;;;;;;;18.99;48.29;92882.84;5040494;28;20320;-86
2022/09/18 04:33:15;;;;;;;1.45;0.80;;;;;;;18.99;47.79;92891.81;5050796;28;20063;-86
2022/09/18 04:35:40;;;;;;;2.85;1.17;;;;;;;19.01;48.17;92888.53;5033166;28;20085;-86
2022/09/18 04:38:07;;;;;;;3.30;1.10;;;;;;;19.01;47.60;92902.97;5033805;28;20037;-86
2022/09/18 04:40:32;;;;;;;2.92;1.27;;;;;;;19.01;48.24;92904.97;5050504;28;20048;-86
2022/09/18 04:42:57;;;;;;;1.88;0.88;;;;;;;18.97;47.73;92902.53;5046119;28;20033;-87
2022/09/18 04:45:23;;;;;;;1.88;1.00;;;;;;;18.97;48.13;92899.81;5033970;28;20040;-86
2022/09/18 04:47:49;;;;;;;1.50;0.75;;;;;;;18.96;48.25;92901.06;5050600;28;20460;-87
2022/09/18 04:50:14;;;;;;;2.05;1.00;;;;;;;18.96;48.01;92901.06;5050332;28;20036;-86
2022/09/18 04:52:39;;;;;;;2.03;0.95;;;;;;;18.98;48.01;92903.28;5074954;28;20047;-86
2022/09/18 04:55:05;;;;;;;2.60;1.25;;;;;;;18.96;48.56;92912.03;5062966;28;20043;-86
2022/09/18 04:57:31;;;;;;;1.65;1.08;;;;;;;18.94;48.27;92909.06;5049359;28;20032;-86
2022/09/18 04:59:56;;;;;;;1.85;0.95;;;;;;;18.98;48.13;92909.50;5083201;28;20402;-87
2022/09/18 05:02:23;;;;;;;1.90;1.02;;;;;;;18.97;47.91;92916.25;5035431;28;20073;-86
2022/09/18 05:04:48;;;;;;;1.23;0.80;;;;;;;19.00;48.18;92915.19;5066669;28;20119;-86
2022/09/18 05:07:14;;;;;;;2.35;0.95;;;;;;;18.99;48.10;92918.47;5073527;28;20032;-86
2022/09/18 05:09:39;;;;;;;2.67;1.02;;;;;;;18.98;48.25;92912.25;5064930;28;20036;-86
2022/09/18 05:12:05;;;;;;;2.28;1.08;;;;;;;19.01;48.27;92908.44;5021458;28;20048;-87
2022/09/18 05:14:31;;;;;;;2.03;1.08;;;;;;;18.99;48.00;92910.25;5048392;28;20033;-87
2022/09/18 05:16:56;;;;;;;1.95;1.00;;;;;;;18.97;48.14;92902.53;5039269;28;20047;-88
2022/09/18 05:19:22;;;;;;;1.48;0.80;;;;;;;18.99;47.98;92907.50;5062201;28;20218;-87
2022/09/18 05:21:49;;;;;;;2.13;1.00;;;;;;;19.02;48.15;92907.19;5069860;28;20119;-87
2022/09/18 05:24:14;;;;;;;2.92;1.10;;;;;;;18.99;48.24;92908.25;5065406;28;20420;-87
2022/09/18 05:26:40;;;;;;;1.83;0.95;;;;;;;18.99;48.58;92902.03;5066215;28;20037;-86
2022/09/18 05:29:05;;;;;;;2.33;0.90;;;;;;;19.01;48.11;92904.97;5032723;28;20024;-85
2022/09/18 05:31:31;;;;;;;1.65;0.85;;;;;;;18.99;48.13;92910.25;5073611;28;20032;-86
2022/09/18 05:33:56;;;;;;;1.17;0.85;;;;;;;19.01;48.15;92907.72;5087516;28;20043;-87
2022/09/18 05:36:21;;;;;;;1.25;0.77;;;;;;;18.97;48.33;92918.97;5068102;28;20151;-86
2022/09/18 05:38:47;;;;;;;1.55;0.95;;;;;;;18.99;48.24;92912.97;5086404;28;20503;-86
2022/09/18 05:41:12;;;;;;;1.52;0.88;;;;;;;18.99;48.27;92916.44;5076689;28;20048;-87
2022/09/18 05:43:38;;;;;;;1.23;0.75;;;;;;;18.99;48.38;92907.50;5067193;28;20032;-86
2022/09/18 05:46:03;;;;;;;1.95;1.00;;;;;;;18.94;48.52;92922.78;5065315;28;20482;-87
2022/09/18 05:48:29;;;;;;;2.25;1.25;;;;;;;18.94;48.46;92916.56;5082503;28;20059;-86
2022/09/18 05:50:55;;;;;;;1.50;0.90;;;;;;;18.94;48.29;92914.56;5066177;28;20098;-86
2022/09/18 05:53:20;;;;;;;1.50;0.80;;;;;;;18.94;48.10;92919.28;5066904;28;20060;-86
2022/09/18 05:55:46;;;;;;;1.42;0.90;;;;;;;18.96;48.17;92919.50;5070844;28;20495;-86
2022/09/18 05:58:14;;;;;;;2.00;1.15;;;;;;;18.94;48.20;92917.28;5064508;28;20033;-86
2022/09/18 06:00:39;;;;;;;2.33;1.00;;;;;;;18.95;48.53;92915.28;5059720;28;20037;-86
2022/09/18 06:03:08;;;;;;;1.92;1.00;;;;;;;18.94;48.07;92928.25;5065618;28;20138;-86
2022/09/18 06:05:34;;;;;;;1.73;0.85;;;;;;;18.96;48.22;92927.72;5049298;28;20483;-86
2022/09/18 06:08:00;;;;;;;1.42;0.88;;;;;;;18.99;48.16;92923.94;5061379;28;20124;-86
2022/09/18 06:10:26;;;;;;;2.78;0.82;;;;;;;18.96;48.44;92933.94;5068212;28;20040;-89
2022/09/18 06:13:14;;;;;;;1.48;1.17;;;;;;;18.95;48.25;92937.94;5086132;28;20036;-86
2022/09/18 06:15:40;;;;;;;1.55;1.15;;;;;;;18.95;48.25;92934.47;5078083;28;20037;-86
2022/09/18 06:18:07;;;;;;;2.08;0.80;;;;;;;18.99;48.03;92940.38;5075748;28;20049;-86
2022/09/18 06:20:33;;;;;;;1.83;0.90;;;;;;;18.97;48.37;92946.38;5069377;28;20415;-87
2022/09/18 06:22:59;;;;;;;2.28;0.70;;;;;;;18.96;47.99;92942.16;5069590;28;20044;-86
2022/09/18 06:25:25;;;;;;;1.23;0.70;;;;;;;18.97;48.32;92938.16;5084781;28;20445;-86
2022/09/18 06:27:57;;;;;;;1.40;0.60;;;;;;;18.98;48.32;92945.09;5085650;28;20028;-87
2022/09/18 06:30:27;;;;;;;3.30;0.93;;;;;;;18.99;48.19;92952.06;5069122;28;20036;-86
2022/09/18 06:32:53;;;;;;;1.40;1.00;;;;;;;18.99;48.32;92946.59;5086072;28;20086;-86
2022/09/18 06:35:19;;;;;;;2.20;1.00;;;;;;;18.98;48.14;92942.38;5082437;28;20044;-86
2022/09/18 06:37:44;;;;;;;2.97;0.88;;;;;;;18.99;47.74;92962.28;5065036;28;20041;-86
2022/09/18 06:40:10;;;;;;;1.92;0.95;;;;;;;19.01;48.17;92957.03;5064397;28;20029;-86
2022/09/18 06:42:35;;;;;;;2.65;0.70;;;;;;;18.98;48.31;92961.53;5072995;28;20040;-86
2022/09/18 06:45:00;;;;;;;1.50;0.88;;;;;;;18.97;48.76;92953.84;5048439;28;20593;-86
2022/09/18 06:47:26;;;;;;;2.85;0.70;;;;;;;18.95;48.25;92961.84;5082762;28;20040;-86
2022/09/18 06:49:51;;;;;;;2.58;0.90;;;;;;;18.95;48.19;92965.34;5068183;28;20394;-86
2022/09/18 06:52:17;;;;;;;2.55;0.88;;;;;;;18.96;48.35;92961.31;5084656;28;20028;-87
2022/09/18 06:54:42;;;;;;;2.97;1.08;;;;;;;18.96;48.33;92966.81;5085116;28;20040;-86
2022/09/18 06:57:07;;;;;;;2.58;1.23;;;;;;;18.94;48.45;92963.13;5085433;28;20043;-86
2022/09/18 06:59:33;;;;;;;2.17;0.80;;;;;;;18.93;48.41;92970.59;5072541;28;20398;-86
2022/09/18 07:01:58;;;;;;;1.38;0.70;;;;;;;18.94;48.55;92969.34;5091401;28;20036;-86
2022/09/18 07:04:24;;;;;;;2.67;1.02;;;;;;;18.92;48.54;92974.59;5090088;28;20089;-86
2022/09/18 07:06:50;;;;;;;2.08;1.10;;;;;;;18.95;48.47;92970.06;5072271;28;20518;-87
2022/09/18 07:09:16;;;;;;;1.45;0.73;;;;;;;18.94;48.52;92977.53;5071821;28;20036;-86
2022/09/18 07:11:41;;;;;;;2.60;0.90;;;;;;;18.96;48.66;92971.53;5071937;28;20093;-86
2022/09/18 07:14:07;;;;;;;2.47;0.93;;;;;;;18.93;48.55;92984.28;5106115;28;20526;-87
2022/09/18 07:16:33;;;;;;;1.85;0.85;;;;;;;18.93;48.49;92978.81;5105972;28;20036;-86
2022/09/18 07:18:58;;;;;;;2.05;0.75;;;;;;;18.93;48.43;92967.84;5079120;28;20407;-86
2022/09/18 07:21:23;;;;;;;2.28;0.98;;;;;;;18.93;48.36;92976.06;5068451;28;20024;-86
2022/09/18 07:23:49;;;;;;;2.72;1.20;;;;;;;18.94;48.65;92977.53;5068659;28;20491;-86
2022/09/18 07:26:14;;;;;;;1.88;1.05;;;;;;;18.94;48.53;92985.03;5068345;28;20074;-88
2022/09/18 07:28:40;;;;;;;2.65;1.10;;;;;;;18.94;48.30;92982.28;5105812;28;20036;-86
2022/09/18 07:31:05;;;;;;;2.78;1.20;;;;;;;18.95;48.77;92987.25;5088124;28;20032;-88
2022/09/18 07:33:31;;;;;;;2.80;0.80;;;;;;;18.95;48.45;92981.03;5089217;28;20475;-86
2022/09/18 07:36:00;;;;;;;1.85;0.90;;;;;;;18.94;48.56;92985.03;5089044;28;20067;-88
2022/09/18 07:38:25;;;;;;;2.15;0.95;;;;;;;18.95;48.85;92989.25;5067606;28;20036;-86
2022/09/18 07:40:51;;;;;;;2.00;1.02;;;;;;;18.95;48.54;92978.28;5035127;28;20472;-86
2022/09/18 07:43:17;;;;;;;3.65;1.30;;;;;;;18.96;48.83;92990.72;5078528;28;20035;-86
2022/09/18 07:45:42;;;;;;;1.42;0.70;;;;;;;18.97;49.13;92992.19;5090308;28;20028;-86
2022/09/18 07:48:08;;;;;;;6.15;1.17;;;;;;;18.97;48.91;92983.97;5071258;28;20461;-87
2022/09/18 07:50:33;;;;;;;13.27;9.30;;;;;;;18.95;48.83;92984.50;5085449;28;20032;-87
2022/09/18 07:53:01;;;;;;;3.92;1.10;;;;;;;18.96;48.35;92985.25;5084766;28;20040;-87
2022/09/18 07:55:27;;;;;;;3.55;1.55;;;;;;;18.96;48.39;92985.97;5109038;28;20126;-86
2022/09/18 07:57:53;;;;;;;12.95;10.10;;;;;;;18.97;48.49;92987.47;5087800;28;20124;-86
2022/09/18 08:00:19;;;;;;;8.85;5.70;;;;;;;18.96;48.29;92988.72;5030876;28;20033;-86
2022/09/18 08:02:45;;;;;;;6.95;5.43;;;;;;;19.00;48.51;92993.91;5048885;28;20040;-86
2022/09/18 08:05:10;;;;;;;7.38;5.40;;;;;;;18.95;48.58;92986.50;5048789;28;20488;-88
2022/09/18 08:07:36;;;;;;;7.15;5.10;;;;;;;18.95;48.99;93011.91;5059049;28;20138;-87
2022/09/18 08:10:02;;;;;;;8.52;5.25;;;;;;;18.95;48.57;92998.19;5066817;28;20123;-87
2022/09/18 08:12:28;;;;;;;8.32;4.75;;;;;;;18.95;48.59;93003.69;5033984;28;20472;-86
2022/09/18 08:14:53;;;;;;;6.63;4.70;;;;;;;18.96;48.41;93001.69;5068133;28;20059;-86
2022/09/18 08:17:18;;;;;;;9.38;5.10;;;;;;;18.97;48.52;93011.38;5067492;28;20029;-88
2022/09/18 08:19:44;;;;;;;6.22;4.30;;;;;;;18.95;48.26;93006.41;5074618;28;20047;-87
2022/09/18 08:22:09;;;;;;;7.65;4.43;;;;;;;18.96;48.60;93004.41;5077581;28;20040;-86
2022/09/18 08:24:35;;;;;;;6.95;4.35;;;;;;;18.94;48.43;93006.94;5075889;28;20399;-87
2022/09/18 08:27:03;;;;;;;10.27;5.15;;;;;;;18.92;48.35;93004.72;5067973;28;20048;-86
2022/09/18 08:29:30;;;;;;;7.32;4.65;;;;;;;18.96;48.71;93010.63;5066585;28;20028;-86
2022/09/18 08:31:56;;;;;;;11.45;5.07;;;;;;;18.97;48.41;93005.91;5081677;28;20046;-87
2022/09/18 08:34:22;;;;;;;5.97;4.22;;;;;;;18.97;48.59;93000.41;5090993;28;20039;-86
2022/09/18 08:36:47;;;;;;;6.43;4.30;;;;;;;18.99;48.25;93000.63;5091245;28;20038;-86
2022/09/18 08:39:12;;;;;;;5.88;3.92;;;;;;;18.96;48.48;92993.47;5085224;28;20062;-86
2022/09/18 08:41:52;;;;;;;7.03;4.45;;;;;;;18.96;48.48;92994.19;5062546;28;20059;-86
2022/09/18 08:44:23;;;;;;;8.00;4.30;;;;;;;18.95;48.65;92994.72;5070724;28;20036;-86
2022/09/18 08:47:03;;;;;;;7.60;4.38;;;;;;;18.96;48.69;92996.19;5071569;28;20028;-87
2022/09/18 08:49:45;;;;;;;7.88;4.50;;;;;;;18.99;48.58;93003.38;5068442;28;20338;-87
2022/09/18 08:52:15;;;;;;;6.72;3.88;;;;;;;18.99;48.64;92989.69;5066266;28;20100;-87
2022/09/18 08:55:03;;;;;;;7.45;4.88;;;;;;;18.99;48.78;92990.41;5066849;28;20036;-86
2022/09/18 08:57:36;;;;;;;8.63;4.68;;;;;;;18.95;48.48;93003.69;5063118;28;20519;-86
2022/09/18 09:00:08;;;;;;;6.25;4.10;;;;;;;18.94;48.46;92998.72;5068901;28;20045;-86
2022/09/18 09:02:41;;;;;;;6.88;4.40;;;;;;;18.92;48.51;93001.25;5046740;28;20032;-86
2022/09/18 09:05:11;;;;;;;7.75;4.07;;;;;;;18.94;48.60;93002.19;5030533;28;20048;-87
2022/09/18 09:07:47;;;;;;;8.82;4.50;;;;;;;18.95;48.80;93006.41;5021645;28;20055;-86
2022/09/18 09:10:19;;;;;;;7.20;4.35;;;;;;;18.93;48.79;93000.72;5050002;28;20037;-88
2022/09/18 09:13:12;;;;;;;6.90;4.30;;;;;;;18.94;48.51;93004.94;5068264;28;20063;-88
2022/09/18 09:15:49;;;;;;;6.80;3.92;;;;;;;18.96;48.86;93004.41;5073969;28;20036;-86
2022/09/18 09:18:19;;;;;;;6.45;4.18;;;;;;;18.95;48.86;93005.69;5078797;28;20409;-87
2022/09/18 09:20:52;;;;;;;8.48;4.53;;;;;;;18.97;48.43;93001.16;5058412;28;20127;-87
2022/09/18 09:23:39;;;;;;;6.18;3.95;;;;;;;18.98;48.75;93005.38;5052933;28;20041;-86
2022/09/18 09:26:11;;;;;;;6.88;4.03;;;;;;;18.97;48.92;92997.69;5078957;28;20048;-86
2022/09/18 09:28:55;;;;;;;6.18;3.70;;;;;;;18.96;48.83;93001.69;5046532;28;20037;-88
2022/09/18 09:31:23;;;;;;;6.55;3.90;;;;;;;19.01;48.75;93009.06;5070421;28;20050;-87
2022/09/18 09:33:54;;;;;;;7.75;4.15;;;;;;;19.00;48.64;93015.81;5106884;28;20038;-86
2022/09/18 09:36:21;;;;;;;7.95;4.20;;;;;;;19.01;48.79;93014.53;5089369;28;20089;-87
2022/09/18 09:38:47;;;;;;;5.97;4.05;;;;;;;19.00;48.80;93027.50;5107049;28;20062;-87
2022/09/18 09:41:39;;;;;;;6.40;3.85;;;;;;;18.99;48.91;93019.81;5077604;28;20064;-86
2022/09/18 09:44:13;;;;;;;6.95;4.07;;;;;;;18.98;48.75;93019.06;5060461;28;20131;-86
2022/09/18 09:47:00;;;;;;;7.30;3.55;;;;;;;18.87;47.45;93026.72;5047504;28;20040;-87
2022/09/18 09:49:33;;;;;;;7.53;3.08;;;;;;;18.76;46.83;93022.91;5046426;28;20127;-86
2022/09/18 09:52:11;;;;;;;4.80;2.83;;;;;;;18.73;46.55;93029.44;5049550;28;20086;-87
2022/09/18 09:54:37;;;;;;;7.60;2.83;;;;;;;18.77;47.25;93029.88;5071771;28;20104;-86
2022/09/18 09:57:02;;;;;;;6.85;3.38;;;;;;;18.78;46.69;93033.34;5078794;28;20037;-87
2022/09/18 09:59:37;;;;;;;4.35;2.58;;;;;;;18.80;47.05;93039.03;5067597;28;20032;-87
2022/09/18 10:02:31;;;;;;;19.65;16.75;;;;;;;18.84;47.30;93036.72;5066499;28;20036;-86
2022/09/18 10:05:34;;;;;;;8.68;3.70;;;;;;;18.83;47.58;93046.22;5062882;28;20035;-88
2022/09/18 10:08:32;;;;;;;7.97;4.50;;;;;;;18.84;47.69;93023.03;5098512;28;20079;-87
2022/09/18 10:10:59;;;;;;;7.07;4.60;;;;;;;18.85;48.06;93046.41;5073780;28;20745;-87
2022/09/18 10:13:34;;;;;;;7.30;4.28;;;;;;;18.84;48.06;93042.94;5048688;28;20758;-87
2022/09/18 10:16:02;;;;;;;8.93;4.82;;;;;;;18.83;47.97;93035.25;5050170;28;20082;-87
2022/09/18 10:18:39;;;;;;;8.95;4.88;;;;;;;18.84;48.22;93036.72;5071628;28;20044;-86
2022/09/18 10:21:08;;;;;;;7.10;4.30;;;;;;;18.87;48.25;93038.41;5068403;28;20039;-86
2022/09/18 10:23:38;;;;;;;8.90;4.57;;;;;;;18.89;48.30;93026.94;5065169;28;20029;-87
2022/09/18 10:26:03;;;;;;;8.90;5.13;;;;;;;18.87;48.34;93030.19;5065397;28;20040;-86
2022/09/18 10:28:29;;;;;;;8.88;5.07;;;;;;;18.89;48.42;93026.94;5065169;28;20107;-86
2022/09/18 10:31:05;;;;;;;7.28;4.60;;;;;;;18.87;48.33;93021.97;5060958;28;20040;-87
2022/09/18 10:33:40;;;;;;;9.75;4.78;;;;;;;18.88;48.57;93031.69;5088753;28;20032;-87
2022/09/18 10:36:10;;;;;;;7.35;4.90;;;;;;;18.88;48.50;93037.16;5105449;28;20047;-87
2022/09/18 10:38:39;;;;;;;7.37;4.70;;;;;;;18.89;48.35;93030.41;5105972;28;20056;-86
2022/09/18 10:41:33;;;;;;;8.35;4.85;;;;;;;18.91;48.45;93035.38;5083555;28;20047;-87
2022/09/18 10:44:04;;;;;;;7.85;4.68;;;;;;;18.91;48.50;93029.91;5073084;28;20144;-88
2022/09/18 10:46:32;;;;;;;9.18;4.65;;;;;;;18.91;48.74;93032.63;5048193;28;20048;-87
2022/09/18 10:49:00;;;;;;;8.77;4.50;;;;;;;18.92;48.36;93023.16;5065594;28;20060;-86
2022/09/18 10:51:27;;;;;;;7.40;4.80;;;;;;;18.91;49.06;93030.63;5067590;28;20535;-86
2022/09/18 10:54:01;;;;;;;5.88;4.13;;;;;;;18.93;48.86;93024.63;5049653;28;20056;-87
2022/09/18 10:56:26;;;;;;;6.15;4.40;;;;;;;18.91;49.07;93030.63;5048223;28;20063;-86
2022/09/18 10:58:51;;;;;;;5.38;4.13;;;;;;;18.94;48.41;93028.84;5055354;28;20054;-87
2022/09/18 11:01:17;;;;;;;6.30;3.90;;;;;;;18.94;48.40;93037.06;5084182;28;20085;-87
2022/09/18 11:03:58;;;;;;;6.60;4.20;;;;;;;18.95;48.53;93030.31;5084374;28;20032;-86
2022/09/18 11:06:24;;;;;;;9.40;6.35;;;;;;;18.93;48.85;93028.09;5086844;28;20485;-88
2022/09/18 11:08:56;;;;;;;6.47;4.95;;;;;;;18.95;48.96;93024.84;5098056;28;21047;-87
2022/09/18 11:11:31;;;;;;;8.07;4.65;;;;;;;18.94;48.87;93026.84;5087708;28;20046;-86
2022/09/18 11:14:02;;;;;;;9.68;6.50;;;;;;;18.94;48.73;93023.38;5069625;28;20036;-87
2022/09/18 11:16:29;;;;;;;11.82;9.20;;;;;;;18.94;49.02;93031.59;5075194;28;20120;-87
2022/09/18 11:19:10;;;;;;;9.98;7.97;;;;;;;18.95;49.25;93033.06;5068116;28;20049;-89
2022/09/18 11:21:44;;;;;;;;;;;;;;;18.98;48.90;93016.31;5091058;28;20043;-87
2022/09/18 11:24:18;;;;;;;14.07;9.02;;;;;;;18.94;49.06;93026.84;5068089;28;20394;-87
2022/09/18 11:26:54;;;;;;;12.13;8.93;;;;;;;18.95;48.94;93011.16;5048968;28;20044;-87
2022/09/18 11:29:24;;;;;;;15.05;10.73;;;;;;;18.95;48.93;93005.69;5063716;28;20207;-87
2022/09/18 11:31:57;;;;;;;12.82;9.55;;;;;;;18.95;48.66;93024.84;5064563;28;20068;-87
2022/09/18 11:34:30;;;;;;;13.20;8.85;;;;;;;18.95;48.94;93008.41;5073291;28;20048;-86
2022/09/18 11:36:59;;;;;;;12.50;8.95;;;;;;;18.96;49.03;93023.59;5065584;28;20048;-87
2022/09/18 11:39:43;;;;;;;11.10;8.73;;;;;;;18.94;48.98;93007.69;5048065;28;20041;-87
2022/09/18 11:42:10;;;;;;;13.90;9.25;;;;;;;18.94;48.72;93015.91;5063842;28;20075;-86
2022/09/18 11:44:36;;;;;;;10.23;8.00;;;;;;;18.96;48.96;93010.63;5074624;28;20035;-87